Hampton, NH

7:06 AM EST on January 21, 2017 (GMT -0500)
Towle Farm | | Change Station
Active Advisory: Storm Watch

Elev 56 ft 42.94 °N, 70.85 °W | Updated 14 minutes ago

Overcast
Overcast
35.7 °F
Feels Like 36 °F
N
0.0
Wind Variable Wind from SSW
Gusts 1.0 mph

Today
High -- | Low -- °F
--% Chance of Precip.
Yesterday
High -- | Low -- °F
Precip. -- in
Pressure 29.83 in
Visibility 0.2 miles
Clouds Overcast 200 ft
Windchill 36 °F
Dew Point 35 °F
Humidity 96%
Rainfall 0.00 in
Snow Depth Not available.
7:07 AM 4:42 PM
Waning Crescent, 35% visible
METAR KPSM 211158Z 00000KT 1/4SM R34/3500FT BR OVC002 02/01 A2982 RMK AO2A SLP101 DZB26E50 P0000 4/002 T00190011 10023 20010 57015
Pressure 29.83 in
Visibility 0.2 miles
Clouds Overcast 200 ft
Windchill 36 °F
Dew Point 35 °F
Humidity 96%
Rainfall 0.00 in
Snow Depth Not available.
7:07 AM 4:42 PM
Waning Crescent, 35% visible
METAR KPSM 211158Z 00000KT 1/4SM R34/3500FT BR OVC002 02/01 A2982 RMK AO2A SLP101 DZB26E50 P0000 4/002 T00190011 10023 20010 57015

Get Your Daily Forecast Email!

Thanks for signing up!

Be on the lookout for a verification email in your inbox.

You'll start receiving the daily forecast at 8 AM.

×

10-Day Weather Forecast

Almanac

Astronomy

Jan. 21, 2017 Rise Set
Actual Time
Civil Twilight
Nautical Twilight
Astronomical Twilight
Moon
Length of Visible Light
Length of Day
Tomorrow will be .
, % of the Moon is Illuminated

Today's Extremes

State Highs State Lows

Community

WunderPhotos

Upload Photos

1,962,540 photos uploaded!

WunderBlog® & News

Nearby

Air Quality

  Air Quality AQ Index Pollutant
Not available.

Snow Depth

Station Depth Elevation

Earthquake Activity

City Distance Mag. Time & Date
Minimum magnitude displayed is 2.5.

Coastal Water Temperatures

Place Temperature

Stations

Nearby Weather Stations

Station Location Temp. Windchill Dew Point Humidity Wind Precip. Elev Updated Type
                   

Watches & Warnings

Storm Watch
Issued: 3:39 AM EST Jan. 21, 2017 – National Weather Service

... Storm watch in effect from Monday afternoon through late
Monday night...

The National Weather Service in gray has issued a storm watch...
which is in effect from Monday afternoon through late Monday
night.

* Winds... east 30 to 40 kt with gusts up to 50 kt.

* Seas... 14 to 19 feet.

Precautionary/preparedness actions...

A storm watch is issued when the risk of storm force winds of
48 to 63 knots has significantly increased... but the specific
timing and/or location is still uncertain. It is intended to
provide additional lead time for mariners who may wish to
consider altering their plans.